<?xml version="1.0" encoding="UTF-8" standalone="no" ?>
<gpx xmlns="http://www.topografix.com/GPX/1/1" xmlns:xsi="http://www.w3.org/2001/XMLSchema-instance" xsi:schemaLocation="http://www.topografix.com/GPX/1/1 http://www.topografix.com/GPX/1/1/gpx.xsd" version="1.1" creator="VisuGPX - https://www.visugpx.com">
  <metadata>
    <name>La boucle de Veigy - 16564 - UtagawaVTT.com</name>
    <desc><![CDATA[La boucle de Veigy - 16564 - UtagawaVTT.com HW]]></desc>
  </metadata>
  <trk>
    <name><![CDATA[La boucle de Veigy - 16564 - UtagawaVTT.com]]></name>
    <trkseg>
      <trkpt lat="46.26836" lon="6.25713">
        <ele>429</ele>
        <time>2019-04-10T13:10:23Z</time>
      </trkpt>
      <trkpt lat="46.26849" lon="6.25789">
        <ele>429</ele>
        <time>2019-04-10T13:11:23Z</time>
      </trkpt>
      <trkpt lat="46.26898" lon="6.25822">
        <ele>429.4</ele>
        <time>2019-04-10T13:12:23Z</time>
      </trkpt>
      <trkpt lat="46.26887" lon="6.25867">
        <ele>430</ele>
        <time>2019-04-10T13:13:23Z</time>
      </trkpt>
      <trkpt lat="46.26873" lon="6.25898">
        <ele>430</ele>
        <time>2019-04-10T13:14:23Z</time>
      </trkpt>
      <trkpt lat="46.26846" lon="6.25965">
        <ele>431</ele>
        <time>2019-04-10T13:15:23Z</time>
      </trkpt>
      <trkpt lat="46.26818" lon="6.26092">
        <ele>432</ele>
        <time>2019-04-10T13:16:23Z</time>
      </trkpt>
      <trkpt lat="46.26796" lon="6.26185">
        <ele>433</ele>
        <time>2019-04-10T13:17:23Z</time>
      </trkpt>
      <trkpt lat="46.26751" lon="6.26159">
        <ele>432</ele>
        <time>2019-04-10T13:18:23Z</time>
      </trkpt>
      <trkpt lat="46.26737" lon="6.26208">
        <ele>433</ele>
        <time>2019-04-10T13:19:23Z</time>
      </trkpt>
      <trkpt lat="46.26727" lon="6.26261">
        <ele>433</ele>
        <time>2019-04-10T13:20:23Z</time>
      </trkpt>
      <trkpt lat="46.26722" lon="6.26276">
        <ele>433</ele>
        <time>2019-04-10T13:21:23Z</time>
      </trkpt>
      <trkpt lat="46.26687" lon="6.26268">
        <ele>432</ele>
        <time>2019-04-10T13:22:23Z</time>
      </trkpt>
      <trkpt lat="46.26664" lon="6.26255">
        <ele>431</ele>
        <time>2019-04-10T13:23:23Z</time>
      </trkpt>
      <trkpt lat="46.26658" lon="6.26257">
        <ele>431</ele>
        <time>2019-04-10T13:24:23Z</time>
      </trkpt>
      <trkpt lat="46.26648" lon="6.26272">
        <ele>431</ele>
        <time>2019-04-10T13:25:23Z</time>
      </trkpt>
      <trkpt lat="46.26632" lon="6.26337">
        <ele>433</ele>
        <time>2019-04-10T13:26:23Z</time>
      </trkpt>
      <trkpt lat="46.26624" lon="6.26383">
        <ele>434</ele>
        <time>2019-04-10T13:27:23Z</time>
      </trkpt>
      <trkpt lat="46.26625" lon="6.26503">
        <ele>435</ele>
        <time>2019-04-10T13:28:23Z</time>
      </trkpt>
      <trkpt lat="46.26684" lon="6.26721">
        <ele>436</ele>
        <time>2019-04-10T13:29:23Z</time>
      </trkpt>
      <trkpt lat="46.26719" lon="6.2682">
        <ele>435</ele>
        <time>2019-04-10T13:30:23Z</time>
      </trkpt>
      <trkpt lat="46.2677" lon="6.26898">
        <ele>434</ele>
        <time>2019-04-10T13:31:23Z</time>
      </trkpt>
      <trkpt lat="46.26761" lon="6.26912">
        <ele>433</ele>
        <time>2019-04-10T13:32:23Z</time>
      </trkpt>
      <trkpt lat="46.26768" lon="6.26928">
        <ele>433</ele>
        <time>2019-04-10T13:33:23Z</time>
      </trkpt>
      <trkpt lat="46.26767" lon="6.26941">
        <ele>433</ele>
        <time>2019-04-10T13:34:23Z</time>
      </trkpt>
      <trkpt lat="46.26763" lon="6.26957">
        <ele>433</ele>
        <time>2019-04-10T13:35:23Z</time>
      </trkpt>
      <trkpt lat="46.26751" lon="6.26984">
        <ele>433</ele>
        <time>2019-04-10T13:36:23Z</time>
      </trkpt>
      <trkpt lat="46.26744" lon="6.27012">
        <ele>433</ele>
        <time>2019-04-10T13:37:23Z</time>
      </trkpt>
      <trkpt lat="46.26731" lon="6.27045">
        <ele>434</ele>
        <time>2019-04-10T13:38:23Z</time>
      </trkpt>
      <trkpt lat="46.26727" lon="6.27048">
        <ele>435</ele>
        <time>2019-04-10T13:39:23Z</time>
      </trkpt>
      <trkpt lat="46.26717" lon="6.27046">
        <ele>435</ele>
        <time>2019-04-10T13:40:23Z</time>
      </trkpt>
      <trkpt lat="46.26694" lon="6.27034">
        <ele>437</ele>
        <time>2019-04-10T13:41:23Z</time>
      </trkpt>
      <trkpt lat="46.26676" lon="6.27012">
        <ele>438</ele>
        <time>2019-04-10T13:42:23Z</time>
      </trkpt>
      <trkpt lat="46.2666" lon="6.26968">
        <ele>438</ele>
        <time>2019-04-10T13:43:23Z</time>
      </trkpt>
      <trkpt lat="46.2666" lon="6.26943">
        <ele>437</ele>
        <time>2019-04-10T13:44:23Z</time>
      </trkpt>
      <trkpt lat="46.26663" lon="6.26931">
        <ele>436</ele>
        <time>2019-04-10T13:45:23Z</time>
      </trkpt>
      <trkpt lat="46.26634" lon="6.26799">
        <ele>438</ele>
        <time>2019-04-10T13:46:23Z</time>
      </trkpt>
      <trkpt lat="46.26606" lon="6.26734">
        <ele>440</ele>
        <time>2019-04-10T13:47:23Z</time>
      </trkpt>
      <trkpt lat="46.26581" lon="6.26707">
        <ele>440</ele>
        <time>2019-04-10T13:48:23Z</time>
      </trkpt>
      <trkpt lat="46.26505" lon="6.26673">
        <ele>443</ele>
        <time>2019-04-10T13:49:23Z</time>
      </trkpt>
      <trkpt lat="46.26416" lon="6.26667">
        <ele>446</ele>
        <time>2019-04-10T13:50:23Z</time>
      </trkpt>
      <trkpt lat="46.26381" lon="6.26677">
        <ele>445</ele>
        <time>2019-04-10T13:51:23Z</time>
      </trkpt>
      <trkpt lat="46.26259" lon="6.26605">
        <ele>445</ele>
        <time>2019-04-10T13:52:23Z</time>
      </trkpt>
      <trkpt lat="46.26149" lon="6.26547">
        <ele>446</ele>
        <time>2019-04-10T13:58:23Z</time>
      </trkpt>
      <trkpt lat="46.26016" lon="6.26474">
        <ele>447</ele>
        <time>2019-04-10T13:59:23Z</time>
      </trkpt>
      <trkpt lat="46.25974" lon="6.26459">
        <ele>448</ele>
        <time>2019-04-10T14:00:23Z</time>
      </trkpt>
      <trkpt lat="46.25959" lon="6.2654">
        <ele>450.2</ele>
        <time>2019-04-10T14:01:23Z</time>
      </trkpt>
      <trkpt lat="46.25961" lon="6.26558">
        <ele>450</ele>
        <time>2019-04-10T14:02:23Z</time>
      </trkpt>
      <trkpt lat="46.25969" lon="6.26571">
        <ele>450.3</ele>
        <time>2019-04-10T14:03:23Z</time>
      </trkpt>
      <trkpt lat="46.25941" lon="6.26733">
        <ele>453.2</ele>
        <time>2019-04-10T14:04:23Z</time>
      </trkpt>
      <trkpt lat="46.25905" lon="6.26981">
        <ele>452.6</ele>
        <time>2019-04-10T14:05:23Z</time>
      </trkpt>
      <trkpt lat="46.25847" lon="6.27152">
        <ele>457</ele>
        <time>2019-04-10T14:06:23Z</time>
      </trkpt>
      <trkpt lat="46.25958" lon="6.27249">
        <ele>458</ele>
        <time>2019-04-10T14:07:23Z</time>
      </trkpt>
      <trkpt lat="46.25987" lon="6.27305">
        <ele>459</ele>
        <time>2019-04-10T14:08:23Z</time>
      </trkpt>
      <trkpt lat="46.2598" lon="6.27451">
        <ele>466</ele>
        <time>2019-04-10T14:09:23Z</time>
      </trkpt>
      <trkpt lat="46.25993" lon="6.27568">
        <ele>468</ele>
        <time>2019-04-10T14:10:23Z</time>
      </trkpt>
      <trkpt lat="46.2597" lon="6.27669">
        <ele>470</ele>
        <time>2019-04-10T14:11:23Z</time>
      </trkpt>
      <trkpt lat="46.25933" lon="6.27778">
        <ele>472</ele>
        <time>2019-04-10T14:12:23Z</time>
      </trkpt>
      <trkpt lat="46.25881" lon="6.27881">
        <ele>473</ele>
        <time>2019-04-10T14:13:23Z</time>
      </trkpt>
      <trkpt lat="46.25826" lon="6.27957">
        <ele>474</ele>
        <time>2019-04-10T14:14:23Z</time>
      </trkpt>
      <trkpt lat="46.25776" lon="6.28065">
        <ele>474</ele>
        <time>2019-04-10T14:15:23Z</time>
      </trkpt>
      <trkpt lat="46.25734" lon="6.28168">
        <ele>477</ele>
        <time>2019-04-10T14:16:23Z</time>
      </trkpt>
      <trkpt lat="46.25762" lon="6.28285">
        <ele>476</ele>
        <time>2019-04-10T14:17:23Z</time>
      </trkpt>
      <trkpt lat="46.2579" lon="6.28384">
        <ele>475</ele>
        <time>2019-04-10T14:18:23Z</time>
      </trkpt>
      <trkpt lat="46.25832" lon="6.28494">
        <ele>474</ele>
        <time>2019-04-10T14:19:23Z</time>
      </trkpt>
      <trkpt lat="46.25858" lon="6.28577">
        <ele>477</ele>
        <time>2019-04-10T14:20:23Z</time>
      </trkpt>
      <trkpt lat="46.25908" lon="6.28662">
        <ele>477</ele>
        <time>2019-04-10T14:21:23Z</time>
      </trkpt>
      <trkpt lat="46.25972" lon="6.28741">
        <ele>478</ele>
        <time>2019-04-10T14:22:23Z</time>
      </trkpt>
      <trkpt lat="46.26017" lon="6.28841">
        <ele>476</ele>
        <time>2019-04-10T14:23:23Z</time>
      </trkpt>
      <trkpt lat="46.25999" lon="6.28882">
        <ele>475</ele>
        <time>2019-04-10T14:24:23Z</time>
      </trkpt>
      <trkpt lat="46.2596" lon="6.28921">
        <ele>476</ele>
        <time>2019-04-10T14:25:23Z</time>
      </trkpt>
      <trkpt lat="46.25982" lon="6.28968">
        <ele>476</ele>
        <time>2019-04-10T14:26:23Z</time>
      </trkpt>
      <trkpt lat="46.26033" lon="6.2902">
        <ele>476</ele>
        <time>2019-04-10T14:27:23Z</time>
      </trkpt>
      <trkpt lat="46.26096" lon="6.29071">
        <ele>474</ele>
        <time>2019-04-10T14:28:23Z</time>
      </trkpt>
      <trkpt lat="46.26145" lon="6.29103">
        <ele>473</ele>
        <time>2019-04-10T14:29:23Z</time>
      </trkpt>
      <trkpt lat="46.26191" lon="6.2914">
        <ele>473</ele>
        <time>2019-04-10T14:30:23Z</time>
      </trkpt>
      <trkpt lat="46.26249" lon="6.29156">
        <ele>473</ele>
        <time>2019-04-10T14:31:23Z</time>
      </trkpt>
      <trkpt lat="46.26324" lon="6.29216">
        <ele>470</ele>
        <time>2019-04-10T14:32:23Z</time>
      </trkpt>
      <trkpt lat="46.26325" lon="6.29275">
        <ele>470</ele>
        <time>2019-04-10T14:33:23Z</time>
      </trkpt>
      <trkpt lat="46.2635" lon="6.29325">
        <ele>468</ele>
        <time>2019-04-10T14:34:23Z</time>
      </trkpt>
      <trkpt lat="46.26377" lon="6.2939">
        <ele>468</ele>
        <time>2019-04-10T14:35:23Z</time>
      </trkpt>
      <trkpt lat="46.26424" lon="6.29456">
        <ele>467</ele>
        <time>2019-04-10T14:36:23Z</time>
      </trkpt>
      <trkpt lat="46.26437" lon="6.29504">
        <ele>469</ele>
        <time>2019-04-10T14:37:23Z</time>
      </trkpt>
      <trkpt lat="46.26407" lon="6.29604">
        <ele>472</ele>
        <time>2019-04-10T14:38:23Z</time>
      </trkpt>
      <trkpt lat="46.26383" lon="6.29611">
        <ele>473</ele>
        <time>2019-04-10T14:39:23Z</time>
      </trkpt>
      <trkpt lat="46.26351" lon="6.29637">
        <ele>476</ele>
        <time>2019-04-10T14:40:23Z</time>
      </trkpt>
      <trkpt lat="46.26319" lon="6.29619">
        <ele>478</ele>
        <time>2019-04-10T14:41:23Z</time>
      </trkpt>
      <trkpt lat="46.26268" lon="6.29593">
        <ele>477</ele>
        <time>2019-04-10T14:42:23Z</time>
      </trkpt>
      <trkpt lat="46.26244" lon="6.29599">
        <ele>477</ele>
        <time>2019-04-10T14:43:23Z</time>
      </trkpt>
      <trkpt lat="46.26209" lon="6.29596">
        <ele>476</ele>
        <time>2019-04-10T14:44:23Z</time>
      </trkpt>
      <trkpt lat="46.26149" lon="6.29579">
        <ele>473</ele>
        <time>2019-04-10T14:45:23Z</time>
      </trkpt>
      <trkpt lat="46.26093" lon="6.29538">
        <ele>470</ele>
        <time>2019-04-10T14:46:23Z</time>
      </trkpt>
      <trkpt lat="46.26035" lon="6.29505">
        <ele>469</ele>
        <time>2019-04-10T14:47:23Z</time>
      </trkpt>
      <trkpt lat="46.25992" lon="6.29446">
        <ele>472</ele>
        <time>2019-04-10T14:48:23Z</time>
      </trkpt>
      <trkpt lat="46.25968" lon="6.29395">
        <ele>477</ele>
        <time>2019-04-10T14:49:23Z</time>
      </trkpt>
      <trkpt lat="46.25934" lon="6.29405">
        <ele>477</ele>
        <time>2019-04-10T14:50:23Z</time>
      </trkpt>
      <trkpt lat="46.25886" lon="6.29393">
        <ele>477</ele>
        <time>2019-04-10T14:51:23Z</time>
      </trkpt>
      <trkpt lat="46.25797" lon="6.29382">
        <ele>476</ele>
        <time>2019-04-10T14:52:23Z</time>
      </trkpt>
      <trkpt lat="46.2578" lon="6.29413">
        <ele>474</ele>
        <time>2019-04-10T14:53:23Z</time>
      </trkpt>
      <trkpt lat="46.25732" lon="6.29451">
        <ele>473</ele>
        <time>2019-04-10T14:54:23Z</time>
      </trkpt>
      <trkpt lat="46.25678" lon="6.29481">
        <ele>473</ele>
        <time>2019-04-10T14:55:23Z</time>
      </trkpt>
      <trkpt lat="46.25642" lon="6.29482">
        <ele>476</ele>
        <time>2019-04-10T14:56:23Z</time>
      </trkpt>
      <trkpt lat="46.25602" lon="6.29536">
        <ele>480</ele>
        <time>2019-04-10T14:57:23Z</time>
      </trkpt>
      <trkpt lat="46.25578" lon="6.29573">
        <ele>483</ele>
        <time>2019-04-10T14:58:23Z</time>
      </trkpt>
      <trkpt lat="46.25564" lon="6.29632">
        <ele>485</ele>
        <time>2019-04-10T14:59:23Z</time>
      </trkpt>
      <trkpt lat="46.25535" lon="6.29812">
        <ele>492</ele>
        <time>2019-04-10T15:00:23Z</time>
      </trkpt>
      <trkpt lat="46.25532" lon="6.29878">
        <ele>492</ele>
        <time>2019-04-10T15:01:23Z</time>
      </trkpt>
      <trkpt lat="46.25536" lon="6.29947">
        <ele>492</ele>
        <time>2019-04-10T15:02:23Z</time>
      </trkpt>
      <trkpt lat="46.25525" lon="6.30002">
        <ele>493</ele>
        <time>2019-04-10T15:03:23Z</time>
      </trkpt>
      <trkpt lat="46.25515" lon="6.30066">
        <ele>492</ele>
        <time>2019-04-10T15:04:23Z</time>
      </trkpt>
      <trkpt lat="46.25472" lon="6.30177">
        <ele>492</ele>
        <time>2019-04-10T15:05:23Z</time>
      </trkpt>
      <trkpt lat="46.25468" lon="6.30211">
        <ele>493</ele>
        <time>2019-04-10T15:06:23Z</time>
      </trkpt>
      <trkpt lat="46.25462" lon="6.30216">
        <ele>493</ele>
        <time>2019-04-10T15:07:23Z</time>
      </trkpt>
      <trkpt lat="46.25479" lon="6.3024">
        <ele>492</ele>
        <time>2019-04-10T15:08:23Z</time>
      </trkpt>
      <trkpt lat="46.25483" lon="6.30303">
        <ele>494</ele>
        <time>2019-04-10T15:09:23Z</time>
      </trkpt>
      <trkpt lat="46.25503" lon="6.30352">
        <ele>495</ele>
        <time>2019-04-10T15:10:23Z</time>
      </trkpt>
      <trkpt lat="46.25543" lon="6.30413">
        <ele>493</ele>
        <time>2019-04-10T15:11:23Z</time>
      </trkpt>
      <trkpt lat="46.25576" lon="6.30482">
        <ele>494</ele>
        <time>2019-04-10T15:12:23Z</time>
      </trkpt>
      <trkpt lat="46.25638" lon="6.30375">
        <ele>491</ele>
        <time>2019-04-10T15:13:23Z</time>
      </trkpt>
      <trkpt lat="46.25675" lon="6.30244">
        <ele>489</ele>
        <time>2019-04-10T15:14:23Z</time>
      </trkpt>
      <trkpt lat="46.25693" lon="6.30198">
        <ele>490</ele>
        <time>2019-04-10T15:15:23Z</time>
      </trkpt>
      <trkpt lat="46.25793" lon="6.29851">
        <ele>478</ele>
        <time>2019-04-10T15:16:23Z</time>
      </trkpt>
      <trkpt lat="46.2581" lon="6.29788">
        <ele>477</ele>
        <time>2019-04-10T15:17:23Z</time>
      </trkpt>
      <trkpt lat="46.25848" lon="6.2981">
        <ele>477</ele>
        <time>2019-04-10T15:18:23Z</time>
      </trkpt>
      <trkpt lat="46.25924" lon="6.29814">
        <ele>475</ele>
        <time>2019-04-10T15:19:23Z</time>
      </trkpt>
      <trkpt lat="46.26001" lon="6.29861">
        <ele>476</ele>
        <time>2019-04-10T15:20:23Z</time>
      </trkpt>
      <trkpt lat="46.26091" lon="6.29868">
        <ele>479</ele>
        <time>2019-04-10T15:21:23Z</time>
      </trkpt>
      <trkpt lat="46.26142" lon="6.29849">
        <ele>483</ele>
        <time>2019-04-10T15:22:23Z</time>
      </trkpt>
      <trkpt lat="46.26213" lon="6.29854">
        <ele>484</ele>
        <time>2019-04-10T15:23:23Z</time>
      </trkpt>
      <trkpt lat="46.26256" lon="6.29876">
        <ele>484</ele>
        <time>2019-04-10T15:24:23Z</time>
      </trkpt>
      <trkpt lat="46.26257" lon="6.29887">
        <ele>484</ele>
        <time>2019-04-10T15:25:23Z</time>
      </trkpt>
      <trkpt lat="46.26282" lon="6.29952">
        <ele>486</ele>
        <time>2019-04-10T15:26:23Z</time>
      </trkpt>
      <trkpt lat="46.26286" lon="6.29993">
        <ele>487</ele>
        <time>2019-04-10T15:27:23Z</time>
      </trkpt>
      <trkpt lat="46.26289" lon="6.29999">
        <ele>487</ele>
        <time>2019-04-10T15:28:23Z</time>
      </trkpt>
      <trkpt lat="46.26323" lon="6.3003">
        <ele>486</ele>
        <time>2019-04-10T15:29:23Z</time>
      </trkpt>
      <trkpt lat="46.26326" lon="6.30104">
        <ele>487</ele>
        <time>2019-04-10T15:30:23Z</time>
      </trkpt>
      <trkpt lat="46.26357" lon="6.30144">
        <ele>489</ele>
        <time>2019-04-10T15:31:23Z</time>
      </trkpt>
      <trkpt lat="46.26369" lon="6.30148">
        <ele>489</ele>
        <time>2019-04-10T15:32:23Z</time>
      </trkpt>
      <trkpt lat="46.26425" lon="6.30184">
        <ele>489</ele>
        <time>2019-04-10T15:33:23Z</time>
      </trkpt>
      <trkpt lat="46.26462" lon="6.30232">
        <ele>490</ele>
        <time>2019-04-10T15:34:23Z</time>
      </trkpt>
      <trkpt lat="46.2645" lon="6.30297">
        <ele>492</ele>
        <time>2019-04-10T15:35:23Z</time>
      </trkpt>
      <trkpt lat="46.26433" lon="6.30345">
        <ele>493</ele>
        <time>2019-04-10T15:36:23Z</time>
      </trkpt>
      <trkpt lat="46.26384" lon="6.30459">
        <ele>496</ele>
        <time>2019-04-10T15:37:23Z</time>
      </trkpt>
      <trkpt lat="46.2638" lon="6.30508">
        <ele>497</ele>
        <time>2019-04-10T15:38:23Z</time>
      </trkpt>
      <trkpt lat="46.2638" lon="6.30594">
        <ele>500</ele>
        <time>2019-04-10T15:39:23Z</time>
      </trkpt>
      <trkpt lat="46.26376" lon="6.30661">
        <ele>502</ele>
        <time>2019-04-10T15:40:23Z</time>
      </trkpt>
      <trkpt lat="46.264" lon="6.30725">
        <ele>501</ele>
        <time>2019-04-10T15:41:23Z</time>
      </trkpt>
      <trkpt lat="46.2646" lon="6.30752">
        <ele>502</ele>
        <time>2019-04-10T15:42:23Z</time>
      </trkpt>
      <trkpt lat="46.26492" lon="6.30784">
        <ele>503</ele>
        <time>2019-04-10T15:43:23Z</time>
      </trkpt>
      <trkpt lat="46.26467" lon="6.30843">
        <ele>504</ele>
        <time>2019-04-10T15:44:23Z</time>
      </trkpt>
      <trkpt lat="46.2643" lon="6.30871">
        <ele>503</ele>
        <time>2019-04-10T15:45:23Z</time>
      </trkpt>
      <trkpt lat="46.26425" lon="6.30892">
        <ele>504</ele>
        <time>2019-04-10T15:46:23Z</time>
      </trkpt>
      <trkpt lat="46.26415" lon="6.30953">
        <ele>507</ele>
        <time>2019-04-10T15:47:23Z</time>
      </trkpt>
      <trkpt lat="46.2639" lon="6.31033">
        <ele>511</ele>
        <time>2019-04-10T15:48:23Z</time>
      </trkpt>
      <trkpt lat="46.26354" lon="6.31173">
        <ele>521</ele>
        <time>2019-04-10T15:49:23Z</time>
      </trkpt>
      <trkpt lat="46.26322" lon="6.31236">
        <ele>524</ele>
        <time>2019-04-10T15:50:23Z</time>
      </trkpt>
      <trkpt lat="46.26299" lon="6.31287">
        <ele>525</ele>
        <time>2019-04-10T15:51:23Z</time>
      </trkpt>
      <trkpt lat="46.26264" lon="6.3132">
        <ele>526</ele>
        <time>2019-04-10T15:52:23Z</time>
      </trkpt>
      <trkpt lat="46.26218" lon="6.31301">
        <ele>526</ele>
        <time>2019-04-10T15:53:23Z</time>
      </trkpt>
      <trkpt lat="46.2621" lon="6.31329">
        <ele>526</ele>
        <time>2019-04-10T15:54:23Z</time>
      </trkpt>
      <trkpt lat="46.26185" lon="6.31329">
        <ele>527</ele>
        <time>2019-04-10T15:55:23Z</time>
      </trkpt>
      <trkpt lat="46.26178" lon="6.31345">
        <ele>526</ele>
        <time>2019-04-10T15:56:23Z</time>
      </trkpt>
      <trkpt lat="46.26177" lon="6.31358">
        <ele>526</ele>
        <time>2019-04-10T15:57:23Z</time>
      </trkpt>
      <trkpt lat="46.2616" lon="6.31358">
        <ele>526</ele>
        <time>2019-04-10T15:58:23Z</time>
      </trkpt>
      <trkpt lat="46.26103" lon="6.31351">
        <ele>525</ele>
        <time>2019-04-10T15:59:23Z</time>
      </trkpt>
      <trkpt lat="46.2606" lon="6.31341">
        <ele>524</ele>
        <time>2019-04-10T16:00:23Z</time>
      </trkpt>
      <trkpt lat="46.25987" lon="6.31351">
        <ele>520</ele>
        <time>2019-04-10T16:01:23Z</time>
      </trkpt>
      <trkpt lat="46.25936" lon="6.31369">
        <ele>521</ele>
        <time>2019-04-10T16:02:23Z</time>
      </trkpt>
      <trkpt lat="46.25836" lon="6.31343">
        <ele>519</ele>
        <time>2019-04-10T16:03:23Z</time>
      </trkpt>
      <trkpt lat="46.25829" lon="6.3137">
        <ele>520</ele>
        <time>2019-04-10T16:04:23Z</time>
      </trkpt>
      <trkpt lat="46.25798" lon="6.31446">
        <ele>522</ele>
        <time>2019-04-10T16:05:23Z</time>
      </trkpt>
      <trkpt lat="46.25776" lon="6.31523">
        <ele>524</ele>
        <time>2019-04-10T16:06:23Z</time>
      </trkpt>
      <trkpt lat="46.25708" lon="6.3168">
        <ele>528</ele>
        <time>2019-04-10T16:07:23Z</time>
      </trkpt>
      <trkpt lat="46.25691" lon="6.3174">
        <ele>531</ele>
        <time>2019-04-10T16:08:23Z</time>
      </trkpt>
      <trkpt lat="46.25687" lon="6.31745">
        <ele>531</ele>
        <time>2019-04-10T16:09:23Z</time>
      </trkpt>
      <trkpt lat="46.25688" lon="6.31742">
        <ele>531</ele>
        <time>2019-04-10T16:10:23Z</time>
      </trkpt>
      <trkpt lat="46.25688" lon="6.31744">
        <ele>531</ele>
        <time>2019-04-10T16:11:23Z</time>
      </trkpt>
      <trkpt lat="46.25687" lon="6.31745">
        <ele>531</ele>
        <time>2019-04-10T16:12:23Z</time>
      </trkpt>
      <trkpt lat="46.25688" lon="6.31753">
        <ele>531</ele>
        <time>2019-04-10T16:13:23Z</time>
      </trkpt>
      <trkpt lat="46.25722" lon="6.31806">
        <ele>531</ele>
        <time>2019-04-10T16:14:23Z</time>
      </trkpt>
      <trkpt lat="46.25762" lon="6.31876">
        <ele>531</ele>
        <time>2019-04-10T16:15:23Z</time>
      </trkpt>
      <trkpt lat="46.258" lon="6.31935">
        <ele>530</ele>
        <time>2019-04-10T16:16:23Z</time>
      </trkpt>
      <trkpt lat="46.25831" lon="6.32008">
        <ele>530</ele>
        <time>2019-04-10T16:17:23Z</time>
      </trkpt>
      <trkpt lat="46.25841" lon="6.32093">
        <ele>533</ele>
        <time>2019-04-10T16:18:23Z</time>
      </trkpt>
      <trkpt lat="46.25872" lon="6.32189">
        <ele>536</ele>
        <time>2019-04-10T16:19:23Z</time>
      </trkpt>
      <trkpt lat="46.25873" lon="6.32228">
        <ele>537</ele>
        <time>2019-04-10T16:20:23Z</time>
      </trkpt>
      <trkpt lat="46.25907" lon="6.32207">
        <ele>537</ele>
        <time>2019-04-10T16:21:23Z</time>
      </trkpt>
      <trkpt lat="46.25966" lon="6.32291">
        <ele>539</ele>
        <time>2019-04-10T16:22:23Z</time>
      </trkpt>
      <trkpt lat="46.25998" lon="6.32343">
        <ele>541</ele>
        <time>2019-04-10T16:23:23Z</time>
      </trkpt>
      <trkpt lat="46.26015" lon="6.3241">
        <ele>544</ele>
        <time>2019-04-10T16:24:23Z</time>
      </trkpt>
      <trkpt lat="46.26041" lon="6.32472">
        <ele>547</ele>
        <time>2019-04-10T16:25:23Z</time>
      </trkpt>
      <trkpt lat="46.26062" lon="6.32541">
        <ele>549</ele>
        <time>2019-04-10T16:26:23Z</time>
      </trkpt>
      <trkpt lat="46.26083" lon="6.32604">
        <ele>552</ele>
        <time>2019-04-10T16:27:23Z</time>
      </trkpt>
      <trkpt lat="46.26089" lon="6.32698">
        <ele>555</ele>
        <time>2019-04-10T16:28:23Z</time>
      </trkpt>
      <trkpt lat="46.26086" lon="6.3273">
        <ele>556</ele>
        <time>2019-04-10T16:29:23Z</time>
      </trkpt>
      <trkpt lat="46.26109" lon="6.3273">
        <ele>556</ele>
        <time>2019-04-10T16:30:23Z</time>
      </trkpt>
      <trkpt lat="46.26166" lon="6.32736">
        <ele>557</ele>
        <time>2019-04-10T16:31:23Z</time>
      </trkpt>
      <trkpt lat="46.26227" lon="6.32738">
        <ele>560</ele>
        <time>2019-04-10T16:32:23Z</time>
      </trkpt>
      <trkpt lat="46.26284" lon="6.32702">
        <ele>559</ele>
        <time>2019-04-10T16:33:23Z</time>
      </trkpt>
      <trkpt lat="46.26342" lon="6.32654">
        <ele>557</ele>
        <time>2019-04-10T16:34:23Z</time>
      </trkpt>
      <trkpt lat="46.26394" lon="6.32632">
        <ele>557</ele>
        <time>2019-04-10T16:35:23Z</time>
      </trkpt>
      <trkpt lat="46.2644" lon="6.32632">
        <ele>557</ele>
        <time>2019-04-10T16:36:23Z</time>
      </trkpt>
      <trkpt lat="46.26495" lon="6.32624">
        <ele>558</ele>
        <time>2019-04-10T16:37:23Z</time>
      </trkpt>
      <trkpt lat="46.26545" lon="6.32605">
        <ele>558</ele>
        <time>2019-04-10T16:38:23Z</time>
      </trkpt>
      <trkpt lat="46.26596" lon="6.32599">
        <ele>559</ele>
        <time>2019-04-10T16:39:23Z</time>
      </trkpt>
      <trkpt lat="46.26633" lon="6.32639">
        <ele>561</ele>
        <time>2019-04-10T16:40:23Z</time>
      </trkpt>
      <trkpt lat="46.26646" lon="6.32673">
        <ele>562</ele>
        <time>2019-04-10T16:41:23Z</time>
      </trkpt>
      <trkpt lat="46.26647" lon="6.32674">
        <ele>562</ele>
        <time>2019-04-10T16:42:23Z</time>
      </trkpt>
      <trkpt lat="46.2665" lon="6.32672">
        <ele>562</ele>
        <time>2019-04-10T16:43:23Z</time>
      </trkpt>
      <trkpt lat="46.26667" lon="6.32689">
        <ele>562</ele>
        <time>2019-04-10T16:44:23Z</time>
      </trkpt>
      <trkpt lat="46.26693" lon="6.32611">
        <ele>562</ele>
        <time>2019-04-10T16:45:23Z</time>
      </trkpt>
      <trkpt lat="46.26741" lon="6.32616">
        <ele>564</ele>
        <time>2019-04-10T16:46:23Z</time>
      </trkpt>
      <trkpt lat="46.26789" lon="6.32636">
        <ele>566</ele>
        <time>2019-04-10T16:47:23Z</time>
      </trkpt>
      <trkpt lat="46.26853" lon="6.32652">
        <ele>568</ele>
        <time>2019-04-10T16:48:23Z</time>
      </trkpt>
      <trkpt lat="46.26913" lon="6.32669">
        <ele>570</ele>
        <time>2019-04-10T16:49:23Z</time>
      </trkpt>
      <trkpt lat="46.26964" lon="6.32665">
        <ele>571</ele>
        <time>2019-04-10T16:50:23Z</time>
      </trkpt>
      <trkpt lat="46.27001" lon="6.3264">
        <ele>571</ele>
        <time>2019-04-10T16:51:23Z</time>
      </trkpt>
      <trkpt lat="46.27056" lon="6.3261">
        <ele>573</ele>
        <time>2019-04-10T16:52:23Z</time>
      </trkpt>
      <trkpt lat="46.27098" lon="6.32603">
        <ele>574</ele>
        <time>2019-04-10T16:53:23Z</time>
      </trkpt>
      <trkpt lat="46.2714" lon="6.32612">
        <ele>575</ele>
        <time>2019-04-10T16:54:23Z</time>
      </trkpt>
      <trkpt lat="46.27184" lon="6.32613">
        <ele>577</ele>
        <time>2019-04-10T16:55:23Z</time>
      </trkpt>
      <trkpt lat="46.2724" lon="6.32604">
        <ele>581</ele>
        <time>2019-04-10T16:56:23Z</time>
      </trkpt>
      <trkpt lat="46.27286" lon="6.3257">
        <ele>579</ele>
        <time>2019-04-10T16:57:23Z</time>
      </trkpt>
      <trkpt lat="46.2734" lon="6.32544">
        <ele>575</ele>
        <time>2019-04-10T16:58:23Z</time>
      </trkpt>
      <trkpt lat="46.27403" lon="6.32541">
        <ele>576</ele>
        <time>2019-04-10T16:59:23Z</time>
      </trkpt>
      <trkpt lat="46.27457" lon="6.32537">
        <ele>576</ele>
        <time>2019-04-10T17:00:23Z</time>
      </trkpt>
      <trkpt lat="46.2757" lon="6.32525">
        <ele>578</ele>
        <time>2019-04-10T17:01:23Z</time>
      </trkpt>
      <trkpt lat="46.27624" lon="6.32555">
        <ele>578</ele>
        <time>2019-04-10T17:02:23Z</time>
      </trkpt>
      <trkpt lat="46.27681" lon="6.32565">
        <ele>577</ele>
        <time>2019-04-10T17:03:23Z</time>
      </trkpt>
      <trkpt lat="46.27791" lon="6.32592">
        <ele>581</ele>
        <time>2019-04-10T17:04:23Z</time>
      </trkpt>
      <trkpt lat="46.2785" lon="6.32603">
        <ele>584</ele>
        <time>2019-04-10T17:05:23Z</time>
      </trkpt>
      <trkpt lat="46.27923" lon="6.32605">
        <ele>587</ele>
        <time>2019-04-10T17:06:23Z</time>
      </trkpt>
      <trkpt lat="46.27954" lon="6.32522">
        <ele>584</ele>
        <time>2019-04-10T17:07:23Z</time>
      </trkpt>
      <trkpt lat="46.27975" lon="6.32516">
        <ele>584</ele>
        <time>2019-04-10T17:08:23Z</time>
      </trkpt>
      <trkpt lat="46.28045" lon="6.32501">
        <ele>583</ele>
        <time>2019-04-10T17:09:23Z</time>
      </trkpt>
      <trkpt lat="46.2812" lon="6.32499">
        <ele>583</ele>
        <time>2019-04-10T17:10:23Z</time>
      </trkpt>
      <trkpt lat="46.28192" lon="6.32506">
        <ele>583</ele>
        <time>2019-04-10T17:11:23Z</time>
      </trkpt>
      <trkpt lat="46.28268" lon="6.32503">
        <ele>580</ele>
        <time>2019-04-10T17:12:23Z</time>
      </trkpt>
      <trkpt lat="46.28338" lon="6.32512">
        <ele>581</ele>
        <time>2019-04-10T17:13:23Z</time>
      </trkpt>
      <trkpt lat="46.28404" lon="6.32491">
        <ele>583</ele>
        <time>2019-04-10T17:14:23Z</time>
      </trkpt>
      <trkpt lat="46.28468" lon="6.32498">
        <ele>586</ele>
        <time>2019-04-10T17:15:23Z</time>
      </trkpt>
      <trkpt lat="46.28529" lon="6.32511">
        <ele>589</ele>
        <time>2019-04-10T17:16:23Z</time>
      </trkpt>
      <trkpt lat="46.28585" lon="6.32508">
        <ele>590</ele>
        <time>2019-04-10T17:17:23Z</time>
      </trkpt>
      <trkpt lat="46.2864" lon="6.32521">
        <ele>591</ele>
        <time>2019-04-10T17:18:23Z</time>
      </trkpt>
      <trkpt lat="46.2863" lon="6.3259">
        <ele>593</ele>
        <time>2019-04-10T17:19:23Z</time>
      </trkpt>
      <trkpt lat="46.28614" lon="6.32668">
        <ele>595</ele>
        <time>2019-04-10T17:20:23Z</time>
      </trkpt>
      <trkpt lat="46.28592" lon="6.32748">
        <ele>595</ele>
        <time>2019-04-10T17:21:23Z</time>
      </trkpt>
      <trkpt lat="46.28583" lon="6.32836">
        <ele>594</ele>
        <time>2019-04-10T17:22:23Z</time>
      </trkpt>
      <trkpt lat="46.28592" lon="6.32929">
        <ele>598</ele>
        <time>2019-04-10T17:23:23Z</time>
      </trkpt>
      <trkpt lat="46.28598" lon="6.33018">
        <ele>600</ele>
        <time>2019-04-10T17:24:23Z</time>
      </trkpt>
      <trkpt lat="46.28597" lon="6.33097">
        <ele>600</ele>
        <time>2019-04-10T17:25:23Z</time>
      </trkpt>
      <trkpt lat="46.28571" lon="6.3316">
        <ele>601</ele>
        <time>2019-04-10T17:26:23Z</time>
      </trkpt>
      <trkpt lat="46.28562" lon="6.33227">
        <ele>604</ele>
        <time>2019-04-10T17:27:23Z</time>
      </trkpt>
      <trkpt lat="46.28552" lon="6.33261">
        <ele>604</ele>
        <time>2019-04-10T17:28:23Z</time>
      </trkpt>
      <trkpt lat="46.28528" lon="6.33311">
        <ele>603</ele>
        <time>2019-04-10T17:29:23Z</time>
      </trkpt>
      <trkpt lat="46.28511" lon="6.33403">
        <ele>600</ele>
        <time>2019-04-10T17:30:23Z</time>
      </trkpt>
      <trkpt lat="46.28527" lon="6.33504">
        <ele>598</ele>
        <time>2019-04-10T17:31:23Z</time>
      </trkpt>
      <trkpt lat="46.2856" lon="6.33571">
        <ele>601</ele>
        <time>2019-04-10T17:32:23Z</time>
      </trkpt>
      <trkpt lat="46.28592" lon="6.33609">
        <ele>602</ele>
        <time>2019-04-10T17:33:23Z</time>
      </trkpt>
      <trkpt lat="46.28624" lon="6.33639">
        <ele>602</ele>
        <time>2019-04-10T17:34:23Z</time>
      </trkpt>
      <trkpt lat="46.28668" lon="6.33662">
        <ele>602</ele>
        <time>2019-04-10T17:35:23Z</time>
      </trkpt>
      <trkpt lat="46.28708" lon="6.33677">
        <ele>604</ele>
        <time>2019-04-10T17:36:23Z</time>
      </trkpt>
      <trkpt lat="46.28744" lon="6.33701">
        <ele>605</ele>
        <time>2019-04-10T17:37:23Z</time>
      </trkpt>
      <trkpt lat="46.28817" lon="6.33703">
        <ele>609</ele>
        <time>2019-04-10T17:38:23Z</time>
      </trkpt>
      <trkpt lat="46.28818" lon="6.33704">
        <ele>609</ele>
        <time>2019-04-10T17:39:23Z</time>
      </trkpt>
      <trkpt lat="46.28822" lon="6.33703">
        <ele>610</ele>
        <time>2019-04-10T17:40:23Z</time>
      </trkpt>
      <trkpt lat="46.28838" lon="6.33708">
        <ele>610</ele>
        <time>2019-04-10T17:41:23Z</time>
      </trkpt>
      <trkpt lat="46.28881" lon="6.33708">
        <ele>610</ele>
        <time>2019-04-10T17:42:23Z</time>
      </trkpt>
      <trkpt lat="46.28933" lon="6.3369">
        <ele>611</ele>
        <time>2019-04-10T17:43:23Z</time>
      </trkpt>
      <trkpt lat="46.28985" lon="6.3368">
        <ele>612</ele>
        <time>2019-04-10T17:44:23Z</time>
      </trkpt>
      <trkpt lat="46.29034" lon="6.33658">
        <ele>612</ele>
        <time>2019-04-10T17:45:23Z</time>
      </trkpt>
      <trkpt lat="46.29091" lon="6.33656">
        <ele>612</ele>
        <time>2019-04-10T17:46:23Z</time>
      </trkpt>
      <trkpt lat="46.29162" lon="6.33658">
        <ele>613</ele>
        <time>2019-04-10T17:47:23Z</time>
      </trkpt>
      <trkpt lat="46.29225" lon="6.3367">
        <ele>612</ele>
        <time>2019-04-10T17:48:23Z</time>
      </trkpt>
      <trkpt lat="46.29236" lon="6.33722">
        <ele>612</ele>
        <time>2019-04-10T17:49:23Z</time>
      </trkpt>
      <trkpt lat="46.29263" lon="6.33735">
        <ele>613</ele>
        <time>2019-04-10T17:50:23Z</time>
      </trkpt>
      <trkpt lat="46.29315" lon="6.33741">
        <ele>616</ele>
        <time>2019-04-10T17:51:23Z</time>
      </trkpt>
      <trkpt lat="46.29361" lon="6.33749">
        <ele>620</ele>
        <time>2019-04-10T17:52:23Z</time>
      </trkpt>
      <trkpt lat="46.29431" lon="6.33737">
        <ele>628</ele>
        <time>2019-04-10T17:53:23Z</time>
      </trkpt>
      <trkpt lat="46.29462" lon="6.33753">
        <ele>631</ele>
        <time>2019-04-10T17:54:23Z</time>
      </trkpt>
      <trkpt lat="46.29496" lon="6.33755">
        <ele>634</ele>
        <time>2019-04-10T17:55:23Z</time>
      </trkpt>
      <trkpt lat="46.2953" lon="6.33743">
        <ele>636</ele>
        <time>2019-04-10T17:56:23Z</time>
      </trkpt>
      <trkpt lat="46.2957" lon="6.33744">
        <ele>639</ele>
        <time>2019-04-10T17:57:23Z</time>
      </trkpt>
      <trkpt lat="46.29604" lon="6.33773">
        <ele>641</ele>
        <time>2019-04-10T17:58:23Z</time>
      </trkpt>
      <trkpt lat="46.2963" lon="6.33816">
        <ele>643</ele>
        <time>2019-04-10T18:00:23Z</time>
      </trkpt>
      <trkpt lat="46.2965" lon="6.33867">
        <ele>643</ele>
        <time>2019-04-10T18:01:23Z</time>
      </trkpt>
      <trkpt lat="46.29666" lon="6.33891">
        <ele>644</ele>
        <time>2019-04-10T18:23:23Z</time>
      </trkpt>
      <trkpt lat="46.2969" lon="6.3388">
        <ele>645</ele>
        <time>2019-04-10T18:24:23Z</time>
      </trkpt>
      <trkpt lat="46.29786" lon="6.33805">
        <ele>648</ele>
        <time>2019-04-10T18:25:23Z</time>
      </trkpt>
      <trkpt lat="46.29847" lon="6.33761">
        <ele>653</ele>
        <time>2019-04-10T18:26:23Z</time>
      </trkpt>
      <trkpt lat="46.29862" lon="6.33779">
        <ele>653</ele>
        <time>2019-04-10T18:27:23Z</time>
      </trkpt>
      <trkpt lat="46.29903" lon="6.33841">
        <ele>657</ele>
        <time>2019-04-10T18:28:23Z</time>
      </trkpt>
      <trkpt lat="46.29945" lon="6.33885">
        <ele>660</ele>
        <time>2019-04-10T18:29:23Z</time>
      </trkpt>
      <trkpt lat="46.30012" lon="6.33919">
        <ele>665</ele>
        <time>2019-04-10T18:30:23Z</time>
      </trkpt>
      <trkpt lat="46.30026" lon="6.3389">
        <ele>666</ele>
        <time>2019-04-10T18:31:23Z</time>
      </trkpt>
      <trkpt lat="46.30056" lon="6.33847">
        <ele>670</ele>
        <time>2019-04-10T18:36:23Z</time>
      </trkpt>
      <trkpt lat="46.3008" lon="6.33832">
        <ele>672.6</ele>
        <time>2019-04-10T18:37:23Z</time>
      </trkpt>
      <trkpt lat="46.30087" lon="6.33844">
        <ele>674.8</ele>
        <time>2019-04-10T18:38:23Z</time>
      </trkpt>
      <trkpt lat="46.3009" lon="6.33859">
        <ele>675.3</ele>
        <time>2019-04-10T18:39:23Z</time>
      </trkpt>
      <trkpt lat="46.30103" lon="6.33906">
        <ele>675.5</ele>
        <time>2019-04-10T18:40:23Z</time>
      </trkpt>
      <trkpt lat="46.30123" lon="6.33985">
        <ele>674</ele>
        <time>2019-04-10T18:41:23Z</time>
      </trkpt>
      <trkpt lat="46.30132" lon="6.34014">
        <ele>673.7</ele>
        <time>2019-04-10T18:42:23Z</time>
      </trkpt>
      <trkpt lat="46.3016" lon="6.34131">
        <ele>677</ele>
        <time>2019-04-10T18:43:23Z</time>
      </trkpt>
      <trkpt lat="46.30179" lon="6.34206">
        <ele>682</ele>
        <time>2019-04-10T18:44:23Z</time>
      </trkpt>
      <trkpt lat="46.30217" lon="6.34202">
        <ele>684</ele>
        <time>2019-04-10T18:45:23Z</time>
      </trkpt>
      <trkpt lat="46.30225" lon="6.34196">
        <ele>683</ele>
        <time>2019-04-10T18:46:23Z</time>
      </trkpt>
      <trkpt lat="46.30267" lon="6.34178">
        <ele>682</ele>
        <time>2019-04-10T18:47:23Z</time>
      </trkpt>
      <trkpt lat="46.30282" lon="6.34222">
        <ele>689</ele>
        <time>2019-04-10T18:48:23Z</time>
      </trkpt>
      <trkpt lat="46.30291" lon="6.34271">
        <ele>697</ele>
        <time>2019-04-10T18:49:23Z</time>
      </trkpt>
      <trkpt lat="46.30309" lon="6.34297">
        <ele>704</ele>
        <time>2019-04-10T18:50:23Z</time>
      </trkpt>
      <trkpt lat="46.30329" lon="6.34329">
        <ele>713</ele>
        <time>2019-04-10T18:51:23Z</time>
      </trkpt>
      <trkpt lat="46.30388" lon="6.34433">
        <ele>719.7</ele>
        <time>2019-04-10T18:52:23Z</time>
      </trkpt>
      <trkpt lat="46.30414" lon="6.3449">
        <ele>722</ele>
        <time>2019-04-10T18:53:23Z</time>
      </trkpt>
      <trkpt lat="46.30466" lon="6.34579">
        <ele>721.4</ele>
        <time>2019-04-10T18:54:23Z</time>
      </trkpt>
      <trkpt lat="46.30509" lon="6.34676">
        <ele>727.6</ele>
        <time>2019-04-10T18:55:23Z</time>
      </trkpt>
      <trkpt lat="46.30604" lon="6.34831">
        <ele>723</ele>
        <time>2019-04-10T18:56:23Z</time>
      </trkpt>
      <trkpt lat="46.30609" lon="6.3487">
        <ele>724</ele>
        <time>2019-04-10T18:57:23Z</time>
      </trkpt>
      <trkpt lat="46.3056" lon="6.34922">
        <ele>730</ele>
        <time>2019-04-10T18:58:23Z</time>
      </trkpt>
      <trkpt lat="46.30571" lon="6.34923">
        <ele>730</ele>
        <time>2019-04-10T18:59:23Z</time>
      </trkpt>
      <trkpt lat="46.30602" lon="6.34935">
        <ele>727</ele>
        <time>2019-04-10T19:00:23Z</time>
      </trkpt>
      <trkpt lat="46.30638" lon="6.3496">
        <ele>723</ele>
        <time>2019-04-10T19:01:23Z</time>
      </trkpt>
      <trkpt lat="46.30669" lon="6.35015">
        <ele>721</ele>
        <time>2019-04-10T19:02:23Z</time>
      </trkpt>
      <trkpt lat="46.30708" lon="6.35047">
        <ele>714</ele>
        <time>2019-04-10T19:03:23Z</time>
      </trkpt>
      <trkpt lat="46.30756" lon="6.35095">
        <ele>708</ele>
        <time>2019-04-10T19:04:23Z</time>
      </trkpt>
      <trkpt lat="46.30827" lon="6.35116">
        <ele>692</ele>
        <time>2019-04-10T19:05:23Z</time>
      </trkpt>
      <trkpt lat="46.30887" lon="6.35147">
        <ele>690</ele>
        <time>2019-04-10T19:06:23Z</time>
      </trkpt>
      <trkpt lat="46.30942" lon="6.35238">
        <ele>694</ele>
        <time>2019-04-10T19:07:23Z</time>
      </trkpt>
      <trkpt lat="46.3097" lon="6.35226">
        <ele>686</ele>
        <time>2019-04-10T19:08:23Z</time>
      </trkpt>
      <trkpt lat="46.30993" lon="6.35206">
        <ele>678</ele>
        <time>2019-04-10T19:09:23Z</time>
      </trkpt>
      <trkpt lat="46.3114" lon="6.35278">
        <ele>633</ele>
        <time>2019-04-10T19:10:23Z</time>
      </trkpt>
      <trkpt lat="46.31194" lon="6.35284">
        <ele>614</ele>
        <time>2019-04-10T19:11:23Z</time>
      </trkpt>
      <trkpt lat="46.31178" lon="6.35227">
        <ele>609</ele>
        <time>2019-04-10T19:12:23Z</time>
      </trkpt>
      <trkpt lat="46.31161" lon="6.35144">
        <ele>603</ele>
        <time>2019-04-10T19:13:23Z</time>
      </trkpt>
      <trkpt lat="46.31174" lon="6.35065">
        <ele>594</ele>
        <time>2019-04-10T19:14:23Z</time>
      </trkpt>
      <trkpt lat="46.3116" lon="6.34975">
        <ele>594</ele>
        <time>2019-04-10T19:15:23Z</time>
      </trkpt>
      <trkpt lat="46.3112" lon="6.34904">
        <ele>593</ele>
        <time>2019-04-10T19:16:23Z</time>
      </trkpt>
      <trkpt lat="46.31101" lon="6.34878">
        <ele>591</ele>
        <time>2019-04-10T19:17:23Z</time>
      </trkpt>
      <trkpt lat="46.31124" lon="6.34864">
        <ele>584</ele>
        <time>2019-04-10T19:18:23Z</time>
      </trkpt>
      <trkpt lat="46.31172" lon="6.34906">
        <ele>583</ele>
        <time>2019-04-10T19:19:23Z</time>
      </trkpt>
      <trkpt lat="46.31246" lon="6.34958">
        <ele>570</ele>
        <time>2019-04-10T19:20:23Z</time>
      </trkpt>
      <trkpt lat="46.31284" lon="6.35023">
        <ele>562</ele>
        <time>2019-04-10T19:21:23Z</time>
      </trkpt>
      <trkpt lat="46.31348" lon="6.35057">
        <ele>547</ele>
        <time>2019-04-10T19:22:23Z</time>
      </trkpt>
      <trkpt lat="46.3137" lon="6.35056">
        <ele>543</ele>
        <time>2019-04-10T19:23:23Z</time>
      </trkpt>
      <trkpt lat="46.31375" lon="6.35057">
        <ele>542</ele>
        <time>2019-04-10T19:24:23Z</time>
      </trkpt>
      <trkpt lat="46.31375" lon="6.3504">
        <ele>541</ele>
        <time>2019-04-10T19:25:23Z</time>
      </trkpt>
      <trkpt lat="46.31355" lon="6.3495">
        <ele>538</ele>
        <time>2019-04-10T19:26:23Z</time>
      </trkpt>
      <trkpt lat="46.31318" lon="6.34867">
        <ele>540</ele>
        <time>2019-04-10T19:27:23Z</time>
      </trkpt>
      <trkpt lat="46.31264" lon="6.34811">
        <ele>548</ele>
        <time>2019-04-10T19:28:23Z</time>
      </trkpt>
      <trkpt lat="46.31263" lon="6.34753">
        <ele>542</ele>
        <time>2019-04-10T19:29:23Z</time>
      </trkpt>
      <trkpt lat="46.31273" lon="6.34752">
        <ele>539</ele>
        <time>2019-04-10T19:30:23Z</time>
      </trkpt>
      <trkpt lat="46.31303" lon="6.34745">
        <ele>531</ele>
        <time>2019-04-10T19:31:23Z</time>
      </trkpt>
      <trkpt lat="46.31317" lon="6.34716">
        <ele>527</ele>
        <time>2019-04-10T19:32:23Z</time>
      </trkpt>
      <trkpt lat="46.31349" lon="6.34633">
        <ele>519</ele>
        <time>2019-04-10T19:33:23Z</time>
      </trkpt>
      <trkpt lat="46.31356" lon="6.34557">
        <ele>516</ele>
        <time>2019-04-10T19:34:23Z</time>
      </trkpt>
      <trkpt lat="46.31363" lon="6.34521">
        <ele>512</ele>
        <time>2019-04-10T19:35:23Z</time>
      </trkpt>
      <trkpt lat="46.31384" lon="6.34504">
        <ele>509</ele>
        <time>2019-04-10T19:36:23Z</time>
      </trkpt>
      <trkpt lat="46.31382" lon="6.34434">
        <ele>501</ele>
        <time>2019-04-10T19:37:23Z</time>
      </trkpt>
      <trkpt lat="46.31353" lon="6.34257">
        <ele>492</ele>
        <time>2019-04-10T19:38:23Z</time>
      </trkpt>
      <trkpt lat="46.31344" lon="6.34214">
        <ele>491</ele>
        <time>2019-04-10T19:39:23Z</time>
      </trkpt>
      <trkpt lat="46.31362" lon="6.34146">
        <ele>487</ele>
        <time>2019-04-10T19:40:23Z</time>
      </trkpt>
      <trkpt lat="46.31358" lon="6.34105">
        <ele>485</ele>
        <time>2019-04-10T19:41:23Z</time>
      </trkpt>
      <trkpt lat="46.31321" lon="6.3405">
        <ele>484</ele>
        <time>2019-04-10T19:42:23Z</time>
      </trkpt>
      <trkpt lat="46.31302" lon="6.33951">
        <ele>478</ele>
        <time>2019-04-10T19:43:23Z</time>
      </trkpt>
      <trkpt lat="46.31301" lon="6.33863">
        <ele>470</ele>
        <time>2019-04-10T19:44:23Z</time>
      </trkpt>
      <trkpt lat="46.31271" lon="6.33782">
        <ele>468</ele>
        <time>2019-04-10T19:45:23Z</time>
      </trkpt>
      <trkpt lat="46.31274" lon="6.33752">
        <ele>465</ele>
        <time>2019-04-10T19:46:23Z</time>
      </trkpt>
      <trkpt lat="46.31282" lon="6.33743">
        <ele>463</ele>
        <time>2019-04-10T19:47:23Z</time>
      </trkpt>
      <trkpt lat="46.31324" lon="6.33715">
        <ele>455</ele>
        <time>2019-04-10T19:48:23Z</time>
      </trkpt>
      <trkpt lat="46.31377" lon="6.33672">
        <ele>446</ele>
        <time>2019-04-10T19:49:23Z</time>
      </trkpt>
      <trkpt lat="46.31407" lon="6.33617">
        <ele>439</ele>
        <time>2019-04-10T19:50:23Z</time>
      </trkpt>
      <trkpt lat="46.31427" lon="6.33585">
        <ele>435</ele>
        <time>2019-04-10T19:51:23Z</time>
      </trkpt>
      <trkpt lat="46.31371" lon="6.33544">
        <ele>437</ele>
        <time>2019-04-10T19:52:23Z</time>
      </trkpt>
      <trkpt lat="46.31345" lon="6.33541">
        <ele>439</ele>
        <time>2019-04-10T19:53:23Z</time>
      </trkpt>
      <trkpt lat="46.31328" lon="6.3349">
        <ele>439</ele>
        <time>2019-04-10T19:54:23Z</time>
      </trkpt>
      <trkpt lat="46.31325" lon="6.33454">
        <ele>439</ele>
        <time>2019-04-10T19:55:23Z</time>
      </trkpt>
      <trkpt lat="46.31302" lon="6.33326">
        <ele>436</ele>
        <time>2019-04-10T19:56:23Z</time>
      </trkpt>
      <trkpt lat="46.31246" lon="6.33223">
        <ele>436</ele>
        <time>2019-04-10T19:57:23Z</time>
      </trkpt>
      <trkpt lat="46.31196" lon="6.33119">
        <ele>436</ele>
        <time>2019-04-10T19:58:23Z</time>
      </trkpt>
      <trkpt lat="46.31166" lon="6.33005">
        <ele>436</ele>
        <time>2019-04-10T19:59:23Z</time>
      </trkpt>
      <trkpt lat="46.31129" lon="6.32917">
        <ele>442</ele>
        <time>2019-04-10T20:00:23Z</time>
      </trkpt>
      <trkpt lat="46.31094" lon="6.32826">
        <ele>443</ele>
        <time>2019-04-10T20:01:23Z</time>
      </trkpt>
      <trkpt lat="46.31047" lon="6.32726">
        <ele>443</ele>
        <time>2019-04-10T20:02:23Z</time>
      </trkpt>
      <trkpt lat="46.31002" lon="6.32604">
        <ele>439</ele>
        <time>2019-04-10T20:03:23Z</time>
      </trkpt>
      <trkpt lat="46.30952" lon="6.32487">
        <ele>440</ele>
        <time>2019-04-10T20:04:23Z</time>
      </trkpt>
      <trkpt lat="46.30899" lon="6.32372">
        <ele>440</ele>
        <time>2019-04-10T20:05:23Z</time>
      </trkpt>
      <trkpt lat="46.30839" lon="6.3227">
        <ele>440</ele>
        <time>2019-04-10T20:06:23Z</time>
      </trkpt>
      <trkpt lat="46.30779" lon="6.32165">
        <ele>438</ele>
        <time>2019-04-10T20:07:23Z</time>
      </trkpt>
      <trkpt lat="46.30696" lon="6.32108">
        <ele>439</ele>
        <time>2019-04-10T20:08:23Z</time>
      </trkpt>
      <trkpt lat="46.30623" lon="6.32026">
        <ele>439</ele>
        <time>2019-04-10T20:09:23Z</time>
      </trkpt>
      <trkpt lat="46.30563" lon="6.31941">
        <ele>441</ele>
        <time>2019-04-10T20:10:23Z</time>
      </trkpt>
      <trkpt lat="46.30504" lon="6.31845">
        <ele>439</ele>
        <time>2019-04-10T20:11:23Z</time>
      </trkpt>
      <trkpt lat="46.30489" lon="6.31858">
        <ele>441</ele>
        <time>2019-04-10T20:12:23Z</time>
      </trkpt>
      <trkpt lat="46.30443" lon="6.31905">
        <ele>445</ele>
        <time>2019-04-10T20:13:23Z</time>
      </trkpt>
      <trkpt lat="46.30406" lon="6.31961">
        <ele>456</ele>
        <time>2019-04-10T20:14:23Z</time>
      </trkpt>
      <trkpt lat="46.30354" lon="6.31934">
        <ele>462</ele>
        <time>2019-04-10T20:15:23Z</time>
      </trkpt>
      <trkpt lat="46.3033" lon="6.3191">
        <ele>462</ele>
        <time>2019-04-10T20:16:23Z</time>
      </trkpt>
      <trkpt lat="46.3033" lon="6.31906">
        <ele>461</ele>
        <time>2019-04-10T20:17:23Z</time>
      </trkpt>
      <trkpt lat="46.303" lon="6.31872">
        <ele>461</ele>
        <time>2019-04-10T20:18:23Z</time>
      </trkpt>
      <trkpt lat="46.30261" lon="6.31813">
        <ele>461</ele>
        <time>2019-04-10T20:19:23Z</time>
      </trkpt>
      <trkpt lat="46.30202" lon="6.31743">
        <ele>461</ele>
        <time>2019-04-10T20:20:23Z</time>
      </trkpt>
      <trkpt lat="46.30203" lon="6.31744">
        <ele>461</ele>
        <time>2019-04-10T20:21:23Z</time>
      </trkpt>
      <trkpt lat="46.30202" lon="6.31744">
        <ele>461</ele>
        <time>2019-04-10T20:22:23Z</time>
      </trkpt>
      <trkpt lat="46.3014" lon="6.31672">
        <ele>456</ele>
        <time>2019-04-10T20:23:23Z</time>
      </trkpt>
      <trkpt lat="46.30119" lon="6.31655">
        <ele>456</ele>
        <time>2019-04-10T20:24:23Z</time>
      </trkpt>
      <trkpt lat="46.30107" lon="6.31561">
        <ele>451</ele>
        <time>2019-04-10T20:25:23Z</time>
      </trkpt>
      <trkpt lat="46.30093" lon="6.31498">
        <ele>448</ele>
        <time>2019-04-10T20:26:23Z</time>
      </trkpt>
      <trkpt lat="46.30065" lon="6.31478">
        <ele>449</ele>
        <time>2019-04-10T20:27:23Z</time>
      </trkpt>
      <trkpt lat="46.30012" lon="6.31415">
        <ele>450</ele>
        <time>2019-04-10T20:28:23Z</time>
      </trkpt>
      <trkpt lat="46.29953" lon="6.31377">
        <ele>450</ele>
        <time>2019-04-10T20:29:23Z</time>
      </trkpt>
      <trkpt lat="46.29916" lon="6.31321">
        <ele>448</ele>
        <time>2019-04-10T20:30:23Z</time>
      </trkpt>
      <trkpt lat="46.29869" lon="6.31442">
        <ele>458</ele>
        <time>2019-04-10T20:31:23Z</time>
      </trkpt>
      <trkpt lat="46.29846" lon="6.3147">
        <ele>461</ele>
        <time>2019-04-10T20:32:23Z</time>
      </trkpt>
      <trkpt lat="46.2982" lon="6.31498">
        <ele>465</ele>
        <time>2019-04-10T20:33:23Z</time>
      </trkpt>
      <trkpt lat="46.29804" lon="6.31518">
        <ele>468</ele>
        <time>2019-04-10T20:34:23Z</time>
      </trkpt>
      <trkpt lat="46.29794" lon="6.31504">
        <ele>468</ele>
        <time>2019-04-10T20:35:23Z</time>
      </trkpt>
      <trkpt lat="46.29715" lon="6.31442">
        <ele>469</ele>
        <time>2019-04-10T20:36:23Z</time>
      </trkpt>
      <trkpt lat="46.2968" lon="6.31411">
        <ele>469</ele>
        <time>2019-04-10T20:37:23Z</time>
      </trkpt>
      <trkpt lat="46.29636" lon="6.31518">
        <ele>480</ele>
        <time>2019-04-10T20:38:23Z</time>
      </trkpt>
      <trkpt lat="46.29621" lon="6.31542">
        <ele>483</ele>
        <time>2019-04-10T20:39:23Z</time>
      </trkpt>
      <trkpt lat="46.296" lon="6.31474">
        <ele>478</ele>
        <time>2019-04-10T20:40:23Z</time>
      </trkpt>
      <trkpt lat="46.29553" lon="6.31283">
        <ele>467</ele>
        <time>2019-04-10T20:41:23Z</time>
      </trkpt>
      <trkpt lat="46.29526" lon="6.31184">
        <ele>462</ele>
        <time>2019-04-10T20:42:23Z</time>
      </trkpt>
      <trkpt lat="46.29492" lon="6.31173">
        <ele>463</ele>
        <time>2019-04-10T20:43:23Z</time>
      </trkpt>
      <trkpt lat="46.29347" lon="6.31089">
        <ele>463</ele>
        <time>2019-04-10T20:44:23Z</time>
      </trkpt>
      <trkpt lat="46.29259" lon="6.31056">
        <ele>466</ele>
        <time>2019-04-10T20:45:23Z</time>
      </trkpt>
      <trkpt lat="46.29193" lon="6.3102">
        <ele>467</ele>
        <time>2019-04-10T20:46:23Z</time>
      </trkpt>
      <trkpt lat="46.29118" lon="6.31027">
        <ele>469</ele>
        <time>2019-04-10T20:47:23Z</time>
      </trkpt>
      <trkpt lat="46.29163" lon="6.30936">
        <ele>465</ele>
        <time>2019-04-10T20:48:23Z</time>
      </trkpt>
      <trkpt lat="46.29197" lon="6.30856">
        <ele>461</ele>
        <time>2019-04-10T20:49:23Z</time>
      </trkpt>
      <trkpt lat="46.29232" lon="6.30736">
        <ele>457</ele>
        <time>2019-04-10T20:50:23Z</time>
      </trkpt>
      <trkpt lat="46.29168" lon="6.3064">
        <ele>456</ele>
        <time>2019-04-10T20:51:23Z</time>
      </trkpt>
      <trkpt lat="46.29098" lon="6.3057">
        <ele>454</ele>
        <time>2019-04-10T20:52:23Z</time>
      </trkpt>
      <trkpt lat="46.29062" lon="6.3062">
        <ele>457</ele>
        <time>2019-04-10T20:53:23Z</time>
      </trkpt>
      <trkpt lat="46.29025" lon="6.30563">
        <ele>455</ele>
        <time>2019-04-10T20:54:23Z</time>
      </trkpt>
      <trkpt lat="46.28955" lon="6.30478">
        <ele>455</ele>
        <time>2019-04-10T20:55:23Z</time>
      </trkpt>
      <trkpt lat="46.28908" lon="6.30383">
        <ele>453</ele>
        <time>2019-04-10T20:56:23Z</time>
      </trkpt>
      <trkpt lat="46.28877" lon="6.30238">
        <ele>449</ele>
        <time>2019-04-10T20:57:23Z</time>
      </trkpt>
      <trkpt lat="46.28871" lon="6.30078">
        <ele>446</ele>
        <time>2019-04-10T20:58:23Z</time>
      </trkpt>
      <trkpt lat="46.28893" lon="6.29943">
        <ele>443</ele>
        <time>2019-04-10T20:59:23Z</time>
      </trkpt>
      <trkpt lat="46.28904" lon="6.29834">
        <ele>441</ele>
        <time>2019-04-10T21:00:23Z</time>
      </trkpt>
      <trkpt lat="46.28834" lon="6.29753">
        <ele>440</ele>
        <time>2019-04-10T21:01:23Z</time>
      </trkpt>
      <trkpt lat="46.28763" lon="6.29663">
        <ele>441</ele>
        <time>2019-04-10T21:02:23Z</time>
      </trkpt>
      <trkpt lat="46.28696" lon="6.29573">
        <ele>443</ele>
        <time>2019-04-10T21:03:23Z</time>
      </trkpt>
      <trkpt lat="46.28634" lon="6.29487">
        <ele>443</ele>
        <time>2019-04-10T21:04:23Z</time>
      </trkpt>
      <trkpt lat="46.28563" lon="6.29407">
        <ele>444</ele>
        <time>2019-04-10T21:05:23Z</time>
      </trkpt>
      <trkpt lat="46.28525" lon="6.2931">
        <ele>445</ele>
        <time>2019-04-10T21:06:23Z</time>
      </trkpt>
      <trkpt lat="46.28471" lon="6.29213">
        <ele>445</ele>
        <time>2019-04-10T21:07:23Z</time>
      </trkpt>
      <trkpt lat="46.28397" lon="6.29177">
        <ele>447</ele>
        <time>2019-04-10T21:08:23Z</time>
      </trkpt>
      <trkpt lat="46.28348" lon="6.29126">
        <ele>448</ele>
        <time>2019-04-10T21:09:23Z</time>
      </trkpt>
      <trkpt lat="46.28265" lon="6.29073">
        <ele>449</ele>
        <time>2019-04-10T21:10:23Z</time>
      </trkpt>
      <trkpt lat="46.28196" lon="6.29015">
        <ele>448</ele>
        <time>2019-04-10T21:11:23Z</time>
      </trkpt>
      <trkpt lat="46.28145" lon="6.2895">
        <ele>450</ele>
        <time>2019-04-10T21:12:23Z</time>
      </trkpt>
      <trkpt lat="46.281" lon="6.289">
        <ele>452</ele>
        <time>2019-04-10T21:13:23Z</time>
      </trkpt>
      <trkpt lat="46.28047" lon="6.28831">
        <ele>452</ele>
        <time>2019-04-10T21:14:23Z</time>
      </trkpt>
      <trkpt lat="46.28017" lon="6.28741">
        <ele>452</ele>
        <time>2019-04-10T21:15:23Z</time>
      </trkpt>
      <trkpt lat="46.28022" lon="6.28657">
        <ele>451</ele>
        <time>2019-04-10T21:16:23Z</time>
      </trkpt>
      <trkpt lat="46.28051" lon="6.28588">
        <ele>450</ele>
        <time>2019-04-10T21:17:23Z</time>
      </trkpt>
      <trkpt lat="46.27999" lon="6.28536">
        <ele>450</ele>
        <time>2019-04-10T21:18:23Z</time>
      </trkpt>
      <trkpt lat="46.27959" lon="6.28436">
        <ele>448</ele>
        <time>2019-04-10T21:19:23Z</time>
      </trkpt>
      <trkpt lat="46.27927" lon="6.28348">
        <ele>446</ele>
        <time>2019-04-10T21:20:23Z</time>
      </trkpt>
      <trkpt lat="46.27897" lon="6.28248">
        <ele>447</ele>
        <time>2019-04-10T21:21:23Z</time>
      </trkpt>
      <trkpt lat="46.2787" lon="6.28132">
        <ele>449</ele>
        <time>2019-04-10T21:22:23Z</time>
      </trkpt>
      <trkpt lat="46.27833" lon="6.28045">
        <ele>449</ele>
        <time>2019-04-10T21:23:23Z</time>
      </trkpt>
      <trkpt lat="46.27776" lon="6.27955">
        <ele>450</ele>
        <time>2019-04-10T21:24:23Z</time>
      </trkpt>
      <trkpt lat="46.27738" lon="6.27885">
        <ele>452</ele>
        <time>2019-04-10T21:25:23Z</time>
      </trkpt>
      <trkpt lat="46.27707" lon="6.27769">
        <ele>450</ele>
      </trkpt>
      <trkpt lat="46.27679" lon="6.27653">
        <ele>450</ele>
      </trkpt>
      <trkpt lat="46.27658" lon="6.27516">
        <ele>448</ele>
      </trkpt>
      <trkpt lat="46.27648" lon="6.27414">
        <ele>447</ele>
      </trkpt>
      <trkpt lat="46.27672" lon="6.27301">
        <ele>446</ele>
      </trkpt>
      <trkpt lat="46.27708" lon="6.27189">
        <ele>445</ele>
      </trkpt>
      <trkpt lat="46.27741" lon="6.27068">
        <ele>442</ele>
      </trkpt>
      <trkpt lat="46.27752" lon="6.2694">
        <ele>437</ele>
      </trkpt>
      <trkpt lat="46.27715" lon="6.26821">
        <ele>433</ele>
      </trkpt>
      <trkpt lat="46.27663" lon="6.26709">
        <ele>432</ele>
      </trkpt>
      <trkpt lat="46.27585" lon="6.26637">
        <ele>430</ele>
      </trkpt>
      <trkpt lat="46.27509" lon="6.26561">
        <ele>429</ele>
      </trkpt>
      <trkpt lat="46.27435" lon="6.26484">
        <ele>429</ele>
      </trkpt>
      <trkpt lat="46.27391" lon="6.26366">
        <ele>429</ele>
      </trkpt>
      <trkpt lat="46.27359" lon="6.26247">
        <ele>429</ele>
      </trkpt>
      <trkpt lat="46.2728" lon="6.26197">
        <ele>429</ele>
      </trkpt>
      <trkpt lat="46.27197" lon="6.26138">
        <ele>431</ele>
      </trkpt>
      <trkpt lat="46.27134" lon="6.26095">
        <ele>431</ele>
      </trkpt>
      <trkpt lat="46.27077" lon="6.26063">
        <ele>432</ele>
      </trkpt>
      <trkpt lat="46.27001" lon="6.26009">
        <ele>431</ele>
      </trkpt>
      <trkpt lat="46.26921" lon="6.25916">
        <ele>430.9</ele>
      </trkpt>
    </trkseg>
  </trk>
</gpx>